Time;durP1;ratioP1;P1;durP2;ratioP2;P2;SDS_P1;SDS_P2;PMS_P1;PMS_P2;Temp;Humidity;BMP_temperature;BMP_pressure;BME280_temperature;BME280_humidity;BME280_pressure;Samples;Min_cycle;Max_cycle;Signal;HPM_P1;HPM_P2
2022/06/02 05:03:13;;;;;;;3.42;1.10;;;14.80;78.10;;;;;;6096722;23;20022;-83
2022/06/02 05:06:14;;;;;;;2.50;0.98;;;14.90;78.10;;;;;;6084760;23;20050;-83
2022/06/02 05:09:05;;;;;;;5.18;1.40;;;15.10;78.00;;;;;;6103691;23;20001;-82
2022/06/02 05:11:43;;;;;;;3.10;1.02;;;15.30;77.20;;;;;;6108887;23;20026;-83
2022/06/02 05:14:27;;;;;;;4.85;1.50;;;15.50;76.50;;;;;;6108722;23;20069;-79
2022/06/02 05:17:21;;;;;;;5.63;1.17;;;15.70;75.60;;;;;;6152022;23;20020;-80
2022/06/02 05:23:40;;;;;;;1.65;0.85;;;16.00;74.50;;;;;;6137497;23;20325;-79
2022/06/02 05:26:34;;;;;;;3.13;1.08;;;16.20;74.20;;;;;;6163747;23;20008;-79
2022/06/02 05:29:38;;;;;;;4.10;1.23;;;16.40;73.10;;;;;;6164443;23;20033;-80
2022/06/02 05:32:33;;;;;;;2.22;0.93;;;16.50;72.50;;;;;;6138073;23;20049;-79
2022/06/02 05:35:18;;;;;;;3.42;1.08;;;16.60;71.70;;;;;;6134212;23;20002;-78
2022/06/02 05:38:15;;;;;;;3.35;0.80;;;16.80;71.60;;;;;;6134368;23;19998;-78
2022/06/02 05:40:53;;;;;;;4.63;1.15;;;17.00;71.10;;;;;;6134911;23;20022;-79
2022/06/02 05:43:46;;;;;;;3.10;1.30;;;17.10;70.80;;;;;;6134053;23;20029;-80
2022/06/02 05:46:24;;;;;;;2.03;0.82;;;17.00;71.00;;;;;;6156239;23;20018;-80
2022/06/02 05:49:39;;;;;;;2.97;1.10;;;17.00;70.60;;;;;;6134294;23;20169;-80
2022/06/02 05:52:16;;;;;;;2.17;0.90;;;17.10;70.10;;;;;;6073269;23;20007;-79
2022/06/02 05:59:03;;;;;;;2.33;1.17;;;17.10;70.20;;;;;;6134697;23;20009;-79
2022/06/02 06:01:42;;;;;;;3.60;1.00;;;17.10;70.80;;;;;;6133150;23;20010;-79
2022/06/02 06:04:33;;;;;;;2.13;1.13;;;17.10;70.30;;;;;;6134723;23;20006;-79
2022/06/02 06:07:06;;;;;;;4.05;1.10;;;16.90;70.00;;;;;;6109243;23;20081;-80
2022/06/02 06:09:41;;;;;;;2.30;1.10;;;17.00;70.60;;;;;;6109182;23;20203;-81
2022/06/02 06:12:17;;;;;;;2.80;1.02;;;17.00;70.50;;;;;;6108015;23;20093;-80
2022/06/02 06:14:55;;;;;;;2.75;1.30;;;17.10;70.80;;;;;;6084926;23;20105;-81
2022/06/02 06:17:49;;;;;;;6.00;1.92;;;17.20;71.00;;;;;;6135451;23;20014;-80
2022/06/02 06:20:36;;;;;;;3.75;1.52;;;17.40;70.30;;;;;;6137187;23;20020;-80
2022/06/02 06:27:20;;;;;;;4.72;1.10;;;17.50;69.90;;;;;;6163837;23;20016;-80
2022/06/02 06:29:52;;;;;;;3.20;1.10;;;17.30;69.70;;;;;;6163625;23;20048;-79
2022/06/02 06:32:46;;;;;;;3.35;1.30;;;17.40;70.50;;;;;;6137044;23;20103;-80
2022/06/02 06:35:29;;;;;;;3.47;1.40;;;17.50;69.70;;;;;;6163266;23;20197;-79
2022/06/02 06:38:13;;;;;;;4.00;1.48;;;17.40;69.60;;;;;;6137910;23;20064;-78
2022/06/02 06:41:17;;;;;;;3.75;1.20;;;17.50;69.60;;;;;;6138300;23;20255;-78
2022/06/02 06:44:20;;;;;;;3.38;1.30;;;17.70;69.50;;;;;;6137853;23;20219;-78
2022/06/02 06:46:55;;;;;;;3.25;1.23;;;17.90;68.80;;;;;;6162709;23;20032;-78
2022/06/02 06:49:33;;;;;;;3.42;1.10;;;18.00;67.90;;;;;;6163592;23;20017;-78
2022/06/02 06:52:36;;;;;;;3.33;1.53;;;17.90;68.60;;;;;;6163765;23;20012;-81
2022/06/02 06:55:46;;;;;;;;;;;17.90;68.80;;;;;;6143418;23;20093;-79
2022/06/02 06:58:21;;;;;;;2.45;1.00;;;18.00;68.50;;;;;;6163324;23;19906;-79
2022/06/02 07:01:28;;;;;;;3.65;1.00;;;18.10;67.60;;;;;;6162997;23;20011;-78
2022/06/02 07:04:17;;;;;;;2.53;1.25;;;18.10;67.30;;;;;;6163557;23;20006;-78
2022/06/02 07:07:12;;;;;;;2.30;1.10;;;18.10;67.50;;;;;;6163769;23;20017;-78
2022/06/02 07:10:03;;;;;;;3.45;1.20;;;18.30;68.10;;;;;;6164515;23;20001;-80
2022/06/02 07:16:36;;;;;;;3.00;1.17;;;18.60;67.30;;;;;;6172306;23;20247;-81
2022/06/02 07:19:36;;;;;;;3.33;1.30;;;18.80;67.00;;;;;;6144239;23;19994;-80
2022/06/02 07:22:35;;;;;;;5.60;1.65;;;18.80;66.90;;;;;;6137198;23;20032;-79
2022/06/02 07:25:51;;;;;;;3.78;1.40;;;18.70;66.70;;;;;;6142856;23;20065;-80
2022/06/02 07:28:46;;;;;;;3.97;1.30;;;18.90;66.90;;;;;;6136179;23;20005;-78
2022/06/02 07:31:43;;;;;;;2.88;1.05;;;18.90;66.60;;;;;;6163139;23;20314;-78
2022/06/02 07:34:48;;;;;;;3.22;1.10;;;19.00;65.80;;;;;;6162244;23;20012;-79
2022/06/02 07:37:51;;;;;;;3.35;1.48;;;19.10;64.40;;;;;;6162871;23;20168;-77
2022/06/02 07:40:29;;;;;;;5.70;1.40;;;18.90;64.60;;;;;;6112260;23;20061;-79
2022/06/02 07:43:39;;;;;;;3.50;0.82;;;19.20;66.00;;;;;;6163142;23;20004;-78
2022/06/02 07:46:11;;;;;;;3.58;1.10;;;19.30;64.60;;;;;;6161938;23;20044;-78
2022/06/02 07:48:59;;;;;;;3.88;1.00;;;19.50;64.20;;;;;;6162642;23;20001;-78
2022/06/02 07:52:02;;;;;;;4.37;1.20;;;19.60;63.60;;;;;;6162723;23;20021;-80
2022/06/02 07:54:49;;;;;;;2.60;0.98;;;19.50;63.30;;;;;;6162829;23;20421;-78
2022/06/02 08:01:48;;;;;;;3.70;1.10;;;19.50;63.70;;;;;;6161208;23;20016;-78
2022/06/02 08:04:39;;;;;;;3.78;1.25;;;19.60;64.40;;;;;;6162074;23;20016;-79
2022/06/02 08:07:43;;;;;;;5.25;1.00;;;19.70;63.40;;;;;;6162616;23;20005;-79
2022/06/02 08:10:35;;;;;;;2.25;0.80;;;19.70;63.40;;;;;;6162589;23;20016;-79
2022/06/02 08:17:00;;;;;;;2.20;0.85;;;19.80;64.10;;;;;;6161660;23;20069;-79
2022/06/02 08:19:31;;;;;;;3.53;1.23;;;20.00;63.30;;;;;;6124609;23;20013;-79
2022/06/02 08:29:49;;;;;;;2.88;1.05;;;20.30;62.80;;;;;;6162857;23;20004;-79
2022/06/02 08:36:07;;;;;;;2.97;0.98;;;20.40;63.00;;;;;;6162774;23;20175;-80
2022/06/02 08:38:49;;;;;;;4.47;1.00;;;20.60;62.20;;;;;;6136576;23;20064;-80
2022/06/02 08:42:17;;;;;;;3.50;1.00;;;20.70;61.90;;;;;;6140624;23;20007;-79
2022/06/02 08:45:21;;;;;;;5.32;1.15;;;20.60;62.20;;;;;;6161550;23;20044;-80
2022/06/02 08:48:41;;;;;;;2.25;0.93;;;20.70;61.60;;;;;;6135317;23;20184;-78
2022/06/02 08:51:24;;;;;;;2.72;1.05;;;20.50;60.70;;;;;;5990858;23;20052;-79
2022/06/02 08:54:15;;;;;;;3.05;0.80;;;20.30;61.40;;;;;;6014761;23;20012;-79
2022/06/02 08:57:14;;;;;;;2.90;0.90;;;20.50;62.30;;;;;;6014421;23;20031;-80
2022/06/02 09:00:18;;;;;;;2.38;0.90;;;20.60;61.00;;;;;;6085142;23;20001;-78
2022/06/02 09:03:02;;;;;;;3.60;0.90;;;20.60;60.40;;;;;;6134505;23;20021;-79
2022/06/02 09:06:07;;;;;;;3.50;1.08;;;20.60;59.80;;;;;;6160288;23;20017;-80
2022/06/02 09:09:07;;;;;;;3.00;1.00;;;20.70;61.70;;;;;;6132642;23;20196;-79
2022/06/02 09:12:19;;;;;;;4.15;1.20;;;20.80;61.70;;;;;;6159991;23;20012;-79
2022/06/02 09:15:21;;;;;;;3.00;1.10;;;20.70;61.50;;;;;;6159960;23;20140;-78
2022/06/02 09:18:40;;;;;;;3.08;0.82;;;20.80;61.70;;;;;;6159737;23;20029;-79
2022/06/02 09:21:26;;;;;;;2.78;0.90;;;21.00;62.00;;;;;;5990362;23;20019;-79
2022/06/02 09:24:20;;;;;;;3.67;0.75;;;21.20;61.00;;;;;;6160554;23;20009;-77
2022/06/02 09:31:14;;;;;;;12.47;1.67;;;21.50;61.10;;;;;;6160018;23;20028;-81
2022/06/02 09:34:21;;;;;;;3.90;0.90;;;21.80;60.30;;;;;;6160416;23;20025;-79
2022/06/02 09:37:31;;;;;;;4.60;1.10;;;21.70;59.70;;;;;;6139693;23;20057;-79
2022/06/02 09:40:12;;;;;;;2.25;0.75;;;21.70;59.30;;;;;;6126421;23;20037;-79
2022/06/02 09:43:02;;;;;;;3.13;1.00;;;21.70;59.80;;;;;;6136442;23;20076;-81
2022/06/02 09:45:43;;;;;;;1.48;0.82;;;21.70;59.00;;;;;;6135101;23;20052;-80
2022/06/02 09:48:43;;;;;;;3.50;0.80;;;21.40;60.00;;;;;;6161796;23;20401;-81
2022/06/02 09:51:47;;;;;;;2.97;1.15;;;21.70;60.70;;;;;;6112374;23;20005;-79
2022/06/02 09:54:54;;;;;;;3.22;1.20;;;22.20;60.20;;;;;;6136187;23;20017;-77
2022/06/02 09:58:20;;;;;;;3.13;0.80;;;22.40;59.10;;;;;;6135819;23;20005;-78
2022/06/02 10:01:30;;;;;;;2.42;0.90;;;22.40;59.30;;;;;;6023453;23;20011;-79
2022/06/02 10:04:37;;;;;;;3.08;1.00;;;22.30;59.30;;;;;;6108844;23;20256;-80
2022/06/02 10:07:47;;;;;;;3.78;1.00;;;22.40;59.00;;;;;;6133939;23;20503;-79
2022/06/02 10:10:31;;;;;;;3.30;0.90;;;22.70;59.50;;;;;;6132390;23;20001;-80
2022/06/02 10:13:17;;;;;;;3.28;0.90;;;22.60;58.90;;;;;;6100774;23;20060;-78
2022/06/02 10:16:33;;;;;;;2.70;1.27;;;22.70;59.30;;;;;;6108109;23;20010;-78
2022/06/02 10:19:54;;;;;;;1.67;0.88;;;22.90;59.10;;;;;;6070586;23;20112;-79
2022/06/02 10:22:57;;;;;;;2.10;0.70;;;22.90;58.70;;;;;;6105495;23;20288;-78
2022/06/02 10:25:28;;;;;;;4.97;0.80;;;23.10;58.20;;;;;;6130130;23;20212;-78
2022/06/02 10:28:25;;;;;;;2.38;0.90;;;23.00;58.50;;;;;;6130182;23;20013;-77
2022/06/02 10:31:10;;;;;;;2.60;0.70;;;23.20;58.10;;;;;;6128996;23;20253;-78
2022/06/02 10:33:41;;;;;;;3.53;0.80;;;23.10;57.50;;;;;;6129462;23;20037;-78
2022/06/02 10:36:23;;;;;;;3.92;0.88;;;23.10;58.30;;;;;;6105889;23;20017;-80
2022/06/02 10:39:18;;;;;;;4.22;0.80;;;23.30;57.70;;;;;;6105429;23;20058;-79
2022/06/02 10:42:06;;;;;;;2.45;0.90;;;23.60;57.50;;;;;;6129831;23;20041;-78
2022/06/02 10:45:21;;;;;;;3.35;0.80;;;23.60;57.60;;;;;;6153073;23;20018;-79
2022/06/02 10:48:18;;;;;;;;;;;23.70;57.90;;;;;;6191202;23;20009;-77
2022/06/02 10:51:08;;;;;;;1.98;0.82;;;23.60;58.00;;;;;;6190906;23;19962;-79
2022/06/02 10:54:03;;;;;;;2.42;1.30;;;23.60;57.90;;;;;;6191682;23;20009;-78
2022/06/02 10:56:36;;;;;;;3.22;1.08;;;23.80;58.20;;;;;;6190585;23;20011;-79
2022/06/02 10:59:40;;;;;;;4.20;1.00;;;24.00;57.30;;;;;;6164737;23;20291;-78
2022/06/02 11:06:21;;;;;;;3.50;1.02;;;24.20;57.40;;;;;;6191361;23;20019;-78
2022/06/02 11:09:25;;;;;;;3.45;0.80;;;24.30;57.10;;;;;;6164253;23;20025;-77
2022/06/02 11:12:46;;;;;;;6.20;1.10;;;24.50;57.10;;;;;;6191919;23;19993;-78
2022/06/02 11:15:34;;;;;;;1.90;0.63;;;24.60;56.60;;;;;;6163421;23;20025;-78
2022/06/02 11:18:28;;;;;;;;;;;24.80;55.00;;;;;;6192811;23;20267;-78
2022/06/02 11:21:32;;;;;;;3.83;0.80;;;24.90;55.30;;;;;;6191183;23;19927;-78
2022/06/02 11:24:46;;;;;;;8.05;1.58;;;25.20;55.60;;;;;;6161696;23;20241;-77
2022/06/02 11:27:53;;;;;;;3.95;0.85;;;25.30;55.80;;;;;;6141374;23;20043;-79
2022/06/02 11:30:47;;;;;;;2.25;0.77;;;25.60;54.90;;;;;;6165037;23;20024;-78
2022/06/02 11:33:42;;;;;;;2.90;1.00;;;26.10;53.90;;;;;;6192201;23;20011;-79
2022/06/02 11:36:26;;;;;;;2.60;0.60;;;26.60;53.90;;;;;;6117450;23;20013;-81
2022/06/02 11:39:47;;;;;;;3.05;0.75;;;27.20;52.60;;;;;;6167162;23;20005;-80
2022/06/02 11:42:52;;;;;;;2.90;0.80;;;28.00;52.40;;;;;;6166560;23;20013;-78
2022/06/02 11:45:46;;;;;;;2.00;0.82;;;28.90;51.40;;;;;;6192412;23;20044;-77
2022/06/02 11:48:43;;;;;;;6.13;0.80;;;29.60;50.70;;;;;;6171863;23;20011;-79
2022/06/02 11:51:54;;;;;;;3.15;0.70;;;30.20;50.00;;;;;;6197468;23;20005;-79
2022/06/02 11:54:53;;;;;;;2.70;0.80;;;30.10;49.10;;;;;;6191693;23;20153;-80
2022/06/02 11:58:01;;;;;;;4.95;0.88;;;31.30;48.40;;;;;;6018348;23;20007;-79
2022/06/02 12:01:10;;;;;;;5.18;1.05;;;32.20;47.40;;;;;;6043083;23;20086;-80
2022/06/02 12:03:51;;;;;;;5.07;0.80;;;32.80;47.40;;;;;;6016034;23;20050;-80
2022/06/02 12:06:38;;;;;;;5.97;0.65;;;32.90;46.40;;;;;;6017139;23;20050;-78
2022/06/02 12:09:43;;;;;;;3.15;0.80;;;32.90;47.30;;;;;;6041857;23;20007;-78
2022/06/02 12:12:43;;;;;;;2.88;0.68;;;33.70;46.50;;;;;;6042030;23;20083;-78
2022/06/02 12:15:40;;;;;;;3.83;0.70;;;33.60;45.90;;;;;;6041096;23;20290;-77
2022/06/02 12:18:27;;;;;;;2.92;0.70;;;33.40;46.20;;;;;;6042054;23;20564;-79
2022/06/02 12:21:37;;;;;;;2.17;0.60;;;33.90;45.80;;;;;;6041971;23;20556;-78
2022/06/02 12:24:27;;;;;;;2.67;0.70;;;33.20;45.70;;;;;;6018193;23;20550;-79
2022/06/02 12:27:20;;;;;;;2.83;0.80;;;34.00;45.50;;;;;;6041818;23;20035;-78
2022/06/02 12:30:29;;;;;;;2.55;0.70;;;34.40;45.60;;;;;;6041642;23;20019;-79
2022/06/02 12:33:36;;;;;;;1.05;0.45;;;34.10;45.40;;;;;;6089788;23;20119;-79
2022/06/02 12:36:26;;;;;;;2.88;0.70;;;34.50;45.50;;;;;;6190615;23;19997;-77
2022/06/02 12:39:28;;;;;;;3.25;0.70;;;33.90;45.70;;;;;;6190358;23;20016;-79
2022/06/02 12:42:31;;;;;;;1.92;0.55;;;33.00;46.50;;;;;;6190276;23;20001;-79
2022/06/02 12:45:35;;;;;;;3.20;0.70;;;32.70;47.20;;;;;;6190322;23;20218;-78
2022/06/02 12:52:03;;;;;;;2.20;0.75;;;33.20;46.40;;;;;;6055049;23;20308;-78
2022/06/02 12:55:07;;;;;;;1.58;0.57;;;34.20;45.90;;;;;;6162813;23;20021;-79
2022/06/02 12:57:36;;;;;;;2.92;0.60;;;34.60;45.80;;;;;;6163906;23;20005;-78
2022/06/02 13:00:48;;;;;;;2.47;0.70;;;35.40;45.10;;;;;;6190285;23;20148;-78
2022/06/02 13:03:45;;;;;;;5.47;1.20;;;35.60;44.40;;;;;;6162447;23;20091;-78
2022/06/02 13:06:16;;;;;;;2.93;0.63;;;35.50;44.60;;;;;;6190481;23;20219;-79
2022/06/02 13:09:26;;;;;;;2.25;0.70;;;36.30;44.10;;;;;;6163908;23;20031;-77
2022/06/02 13:12:31;;;;;;;5.15;0.73;;;36.60;44.20;;;;;;6175521;23;20299;-78
2022/06/02 13:15:32;;;;;;;3.90;0.90;;;37.10;43.60;;;;;;6017795;23;20086;-78
2022/06/02 13:18:06;;;;;;;2.38;0.60;;;38.00;43.10;;;;;;6192272;23;20024;-78
2022/06/02 13:21:26;;;;;;;2.30;0.65;;;38.80;43.00;;;;;;6190953;23;20004;-77
2022/06/02 13:24:54;;;;;;;2.65;0.63;;;39.50;42.60;;;;;;6172117;23;20325;-78
2022/06/02 13:27:59;;;;;;;2.75;0.70;;;38.20;42.90;;;;;;6193446;23;20177;-77
2022/06/02 13:30:51;;;;;;;2.67;0.68;;;38.50;42.40;;;;;;6179798;23;20009;-77
2022/06/02 13:33:20;;;;;;;3.53;0.60;;;37.30;43.00;;;;;;6168498;23;20028;-78
2022/06/02 13:36:25;;;;;;;3.40;0.85;;;36.00;43.40;;;;;;6169635;23;20559;-76
2022/06/02 13:38:55;;;;;;;2.88;0.60;;;35.00;44.40;;;;;;6170579;23;20032;-76
2022/06/02 13:41:54;;;;;;;3.75;0.85;;;34.10;45.20;;;;;;6197703;23;20047;-75
2022/06/02 13:44:48;;;;;;;3.03;0.60;;;33.00;46.00;;;;;;6196191;23;20236;-76
2022/06/02 13:47:45;;;;;;;1.52;0.70;;;32.60;46.80;;;;;;6168446;23;20033;-76
2022/06/02 13:50:49;;;;;;;4.47;0.70;;;32.30;47.00;;;;;;6171992;23;20072;-77
2022/06/02 13:53:36;;;;;;;1.75;0.60;;;32.70;47.00;;;;;;6192184;23;20005;-77
2022/06/02 13:59:15;;;;;;;1.92;0.60;;;32.90;46.40;;;;;;6192963;23;20290;-78
2022/06/02 14:02:03;;;;;;;2.25;0.85;;;32.40;46.90;;;;;;6191383;23;20024;-78
2022/06/02 14:04:45;;;;;;;2.63;0.80;;;32.30;47.40;;;;;;6191936;23;20178;-77
2022/06/02 14:07:20;;;;;;;4.15;0.75;;;32.60;47.20;;;;;;6166853;23;20011;-77
2022/06/02 14:10:14;;;;;;;3.45;0.70;;;33.80;46.10;;;;;;6192895;23;20283;-77
2022/06/02 14:13:11;;;;;;;2.28;0.90;;;35.00;45.00;;;;;;6172793;23;20052;-77
2022/06/02 14:15:43;;;;;;;3.17;0.70;;;37.00;43.70;;;;;;6165119;23;20167;-77
2022/06/02 14:18:18;;;;;;;1.70;0.63;;;38.80;42.50;;;;;;6142530;23;20183;-77
2022/06/02 14:21:01;;;;;;;4.10;0.68;;;39.50;41.70;;;;;;6165892;23;20012;-77
2022/06/02 14:23:45;;;;;;;1.27;0.52;;;40.20;41.50;;;;;;6165930;23;20274;-76
2022/06/02 14:26:34;;;;;;;2.47;0.60;;;41.40;40.60;;;;;;6141352;23;20206;-77
2022/06/02 14:29:17;;;;;;;2.13;0.50;;;41.90;40.10;;;;;;6166559;23;20033;-77
2022/06/02 14:32:21;;;;;;;2.95;0.70;;;41.70;39.90;;;;;;6190600;23;20314;-77
2022/06/02 14:35:44;;;;;;;3.10;0.73;;;40.20;40.40;;;;;;6018830;23;20293;-77
2022/06/02 14:38:29;;;;;;;2.05;0.80;;;37.30;42.40;;;;;;6078901;23;20103;-78
2022/06/02 14:41:23;;;;;;;1.80;0.73;;;35.90;43.80;;;;;;6078185;23;20013;-78
2022/06/02 14:44:24;;;;;;;2.85;0.80;;;34.80;44.50;;;;;;6052602;23;20126;-78
2022/06/02 14:47:07;;;;;;;3.35;0.70;;;33.30;45.50;;;;;;6087868;23;20014;-76
2022/06/02 14:50:04;;;;;;;1.90;0.60;;;32.10;46.80;;;;;;6100527;23;20173;-76
2022/06/02 14:52:55;;;;;;;5.32;0.98;;;30.90;48.70;;;;;;6088218;23;20194;-77
2022/06/02 14:56:12;;;;;;;1.40;0.70;;;30.40;49.10;;;;;;6077397;23;20062;-78
2022/06/02 14:58:57;;;;;;;2.80;0.93;;;29.80;49.80;;;;;;6019023;23;20003;-78
2022/06/02 15:01:31;;;;;;;3.05;1.40;;;29.20;50.90;;;;;;6096428;23;20478;-77
2022/06/02 15:04:44;;;;;;;3.42;0.85;;;28.70;51.50;;;;;;6101169;23;20014;-78
2022/06/02 15:07:36;;;;;;;1.95;1.00;;;28.40;51.70;;;;;;6101399;23;20053;-78
2022/06/02 15:10:38;;;;;;;2.35;0.88;;;28.20;52.10;;;;;;6192271;23;20001;-77
2022/06/02 15:14:07;;;;;;;4.03;0.80;;;28.10;52.40;;;;;;6192391;23;20001;-77
2022/06/02 15:16:37;;;;;;;2.08;0.75;;;27.70;52.50;;;;;;6188336;23;20358;-78
2022/06/02 15:19:09;;;;;;;1.98;1.00;;;27.40;53.20;;;;;;6192426;23;20021;-78
2022/06/02 15:22:10;;;;;;;2.25;0.90;;;27.10;53.70;;;;;;6141013;23;20059;-78
2022/06/02 15:25:09;;;;;;;4.55;0.93;;;27.10;54.00;;;;;;6042292;23;20015;-78
2022/06/02 15:27:56;;;;;;;2.42;0.60;;;26.80;54.30;;;;;;6165509;23;20188;-79
2022/06/02 15:30:54;;;;;;;3.30;1.10;;;26.60;54.60;;;;;;6191916;23;20111;-77
2022/06/02 15:33:55;;;;;;;4.43;1.17;;;26.40;55.10;;;;;;6166428;23;20180;-78
2022/06/02 15:36:57;;;;;;;3.17;0.82;;;26.20;55.70;;;;;;6021601;23;20056;-79
2022/06/02 15:40:13;;;;;;;1.83;0.93;;;26.00;56.50;;;;;;6046762;23;20156;-78
2022/06/02 15:43:27;;;;;;;;;;;;;;;;;;;;;
2022/06/02 15:46:29;;;;;;;3.38;1.20;;;25.70;56.70;;;;;;6085278;23;20122;-78
2022/06/02 15:49:04;;;;;;;2.92;1.02;;;25.40;57.10;;;;;;6167440;23;20034;-78
2022/06/02 15:51:50;;;;;;;6.32;1.65;;;25.40;57.50;;;;;;6192983;23;20198;-80
2022/06/02 15:54:31;;;;;;;2.42;1.10;;;25.50;57.50;;;;;;6167256;23;20005;-77
2022/06/02 15:57:31;;;;;;;4.00;1.10;;;25.40;57.90;;;;;;6167960;23;20001;-78
2022/06/02 16:15:22;;;;;;;3.85;1.20;;;27.00;55.20;;;;;;6138257;23;20195;-78
2022/06/02 16:18:25;;;;;;;2.47;0.90;;;27.60;54.60;;;;;;6163100;23;20037;-78
2022/06/02 16:21:24;;;;;;;3.83;1.10;;;27.80;54.30;;;;;;6143286;23;20013;-79
2022/06/02 16:27:12;;;;;;;3.37;0.97;;;27.90;54.20;;;;;;6172530;23;20290;-79
2022/06/02 16:30:15;;;;;;;2.13;0.95;;;27.80;54.70;;;;;;6163741;23;20005;-78
2022/06/02 16:33:10;;;;;;;3.10;1.35;;;27.80;55.10;;;;;;6163228;23;20017;-78
2022/06/02 16:36:09;;;;;;;2.40;0.93;;;27.60;55.00;;;;;;6163831;23;20275;-78
2022/06/02 16:39:11;;;;;;;2.55;0.95;;;27.70;54.80;;;;;;6137733;23;20009;-78
2022/06/02 16:42:04;;;;;;;3.55;0.98;;;28.60;53.40;;;;;;6136912;23;20184;-79
2022/06/02 16:44:44;;;;;;;2.25;0.98;;;29.90;52.40;;;;;;6163897;23;20044;-78
2022/06/02 16:47:27;;;;;;;1.88;1.00;;;31.50;50.10;;;;;;6163409;23;20083;-78
2022/06/02 16:50:15;;;;;;;2.38;0.70;;;32.00;49.20;;;;;;6163749;23;20212;-79
2022/06/02 16:52:47;;;;;;;;;;;31.70;49.20;;;;;;6138216;23;20009;-78
2022/06/02 16:55:19;;;;;;;3.22;1.10;;;31.40;49.40;;;;;;6137709;23;19900;-78
2022/06/02 16:58:25;;;;;;;2.60;0.98;;;30.90;49.50;;;;;;6162697;23;20001;-77
2022/06/02 17:00:58;;;;;;;3.50;1.10;;;30.30;50.60;;;;;;6137353;23;20069;-78
2022/06/02 17:04:04;;;;;;;2.00;0.80;;;30.50;50.90;;;;;;6176600;23;20016;-77
2022/06/02 17:06:58;;;;;;;2.40;0.93;;;31.70;49.70;;;;;;6166801;23;20005;-77
2022/06/02 17:10:00;;;;;;;4.32;0.85;;;33.90;47.60;;;;;;6192750;23;20008;-77
2022/06/02 17:12:57;;;;;;;3.25;1.40;;;33.50;47.40;;;;;;6192749;23;20093;-78
2022/06/02 17:15:51;;;;;;;2.53;1.35;;;32.90;48.20;;;;;;6191877;23;20032;-78
2022/06/02 17:18:22;;;;;;;2.10;0.88;;;33.00;48.00;;;;;;6192324;23;20024;-77
2022/06/02 17:21:09;;;;;;;3.13;0.95;;;34.00;47.80;;;;;;6191268;23;20021;-79
2022/06/02 17:24:16;;;;;;;2.08;0.70;;;35.60;46.10;;;;;;6165270;23;20005;-79
2022/06/02 17:27:11;;;;;;;4.03;1.00;;;35.10;45.60;;;;;;6190700;23;20001;-77
2022/06/02 17:29:45;;;;;;;1.73;0.80;;;34.00;46.60;;;;;;6190684;23;20281;-79
2022/06/02 17:32:30;;;;;;;1.67;0.80;;;34.20;46.80;;;;;;6191005;23;20128;-79
2022/06/02 17:35:02;;;;;;;1.67;0.73;;;35.30;46.00;;;;;;6190907;23;20214;-77
2022/06/02 17:38:01;;;;;;;1.40;0.50;;;35.50;45.60;;;;;;6191120;23;19997;-79
2022/06/02 17:40:37;;;;;;;2.53;0.80;;;35.80;45.20;;;;;;6164700;23;20312;-78
2022/06/02 17:43:24;;;;;;;2.65;0.80;;;36.10;45.00;;;;;;6190961;23;20016;-78
2022/06/02 17:46:02;;;;;;;1.92;0.80;;;36.60;44.70;;;;;;6163349;23;20029;-77
2022/06/02 17:48:48;;;;;;;2.90;0.80;;;36.70;44.10;;;;;;6190548;23;20244;-77
2022/06/02 17:51:45;;;;;;;2.00;0.90;;;37.00;44.10;;;;;;6190876;23;20236;-77
2022/06/02 17:54:42;;;;;;;1.75;0.93;;;35.40;45.10;;;;;;6191609;23;20016;-79
2022/06/02 17:57:34;;;;;;;2.63;1.23;;;33.60;46.50;;;;;;6190943;23;20251;-76
2022/06/02 18:00:18;;;;;;;2.67;1.00;;;31.80;48.50;;;;;;6165167;23;19997;-79
2022/06/02 18:03:01;;;;;;;2.42;1.10;;;31.20;50.00;;;;;;6191872;23;20016;-77
2022/06/02 18:05:57;;;;;;;3.97;0.98;;;31.90;49.50;;;;;;6193219;23;20005;-77
2022/06/02 18:08:37;;;;;;;2.33;1.10;;;32.70;48.60;;;;;;6166681;23;20001;-79
2022/06/02 18:19:13;;;;;;;2.85;0.85;;;31.80;49.60;;;;;;6193417;23;20051;-77
2022/06/02 18:22:10;;;;;;;2.20;0.85;;;31.80;49.30;;;;;;6172178;23;20025;-76
2022/06/02 18:25:05;;;;;;;2.15;0.95;;;31.30;49.80;;;;;;6172941;23;20202;-80
2022/06/02 18:27:59;;;;;;;2.53;0.70;;;30.10;51.30;;;;;;6170915;23;20008;-77
2022/06/02 18:31:02;;;;;;;2.30;0.93;;;28.90;52.90;;;;;;6145439;23;20064;-78
2022/06/02 18:33:56;;;;;;;2.28;1.10;;;27.80;54.60;;;;;;6170951;23;20015;-79
2022/06/02 18:37:04;;;;;;;2.53;1.00;;;27.00;56.00;;;;;;6197337;23;20000;-78
2022/06/02 18:39:59;;;;;;;3.53;1.27;;;26.50;57.00;;;;;;6181204;23;20431;-79
2022/06/02 18:43:14;;;;;;;3.45;1.75;;;26.00;57.80;;;;;;6197490;23;20017;-78
2022/06/02 18:46:22;;;;;;;2.20;0.90;;;25.60;58.70;;;;;;6052588;23;20086;-78
2022/06/02 18:48:51;;;;;;;2.42;1.13;;;25.10;59.60;;;;;;6076915;23;20007;-78
2022/06/02 18:51:58;;;;;;;3.53;1.20;;;24.80;60.30;;;;;;6077740;23;20014;-78
2022/06/02 18:54:43;;;;;;;5.33;1.50;;;24.40;61.00;;;;;;6085938;23;20011;-79
2022/06/02 19:01:10;;;;;;;3.90;1.75;;;24.00;62.50;;;;;;6077699;23;20011;-78
2022/06/02 19:04:16;;;;;;;5.82;2.88;;;23.70;63.00;;;;;;6073803;23;20301;-78
2022/06/02 19:13:48;;;;;;;3.55;1.83;;;23.10;64.50;;;;;;6050148;23;20137;-77
2022/06/02 19:16:38;;;;;;;2.50;1.60;;;23.00;65.00;;;;;;6047730;23;20015;-77
2022/06/02 19:19:26;;;;;;;4.53;1.30;;;22.80;65.20;;;;;;6074086;23;20008;-78
2022/06/02 19:22:10;;;;;;;3.35;1.55;;;22.60;65.50;;;;;;6092744;23;20058;-79
2022/06/02 19:25:29;;;;;;;3.25;1.27;;;22.50;66.00;;;;;;6168923;23;20006;-77
2022/06/02 19:28:29;;;;;;;;;;;22.40;66.40;;;;;;6146302;23;20029;-77
2022/06/02 19:31:50;;;;;;;2.58;1.40;;;22.20;66.70;;;;;;6166125;23;19967;-77
2022/06/02 19:34:31;;;;;;;3.42;1.63;;;22.10;67.20;;;;;;6107182;23;20065;-76
2022/06/02 19:37:06;;;;;;;3.00;1.65;;;22.00;67.90;;;;;;6083915;23;20228;-77
2022/06/02 19:39:36;;;;;;;2.75;1.65;;;21.90;67.80;;;;;;6107239;23;20057;-78
2022/06/02 19:42:24;;;;;;;3.88;1.73;;;21.90;68.40;;;;;;6084304;23;20188;-78
2022/06/02 19:45:16;;;;;;;4.20;2.25;;;21.80;68.70;;;;;;6083980;23;20017;-78
2022/06/02 19:47:50;;;;;;;4.93;2.10;;;21.60;69.30;;;;;;6069295;23;20014;-78
2022/06/02 19:50:37;;;;;;;5.07;2.28;;;21.50;70.40;;;;;;6084551;23;20288;-79
2022/06/02 19:53:17;;;;;;;4.70;2.13;;;21.30;70.70;;;;;;6065546;23;20030;-79
2022/06/02 20:00:25;;;;;;;4.15;2.22;;;21.10;71.40;;;;;;5994136;24;20302;-77
2022/06/02 20:03:07;;;;;;;3.72;2.15;;;21.00;72.00;;;;;;5980990;23;20211;-80
2022/06/02 20:06:00;;;;;;;3.72;2.22;;;20.90;71.70;;;;;;6106177;23;20346;-78
2022/06/02 20:08:41;;;;;;;4.25;2.30;;;20.90;72.80;;;;;;6082567;23;20003;-77
2022/06/02 20:11:27;;;;;;;3.22;1.80;;;20.80;72.80;;;;;;6091371;23;20033;-78
2022/06/02 20:14:10;;;;;;;4.53;2.13;;;20.80;72.00;;;;;;6111867;23;20029;-77
2022/06/02 20:16:40;;;;;;;3.13;2.00;;;20.70;72.70;;;;;;6111003;23;20017;-78
2022/06/02 20:19:25;;;;;;;5.10;2.33;;;20.70;72.30;;;;;;6085850;23;20009;-77
2022/06/02 20:22:20;;;;;;;5.95;2.25;;;20.70;72.20;;;;;;6110161;23;20016;-77
2022/06/02 20:24:52;;;;;;;7.45;2.70;;;20.60;73.90;;;;;;6125764;23;20107;-78
2022/06/02 20:27:45;;;;;;;5.70;2.72;;;20.50;73.80;;;;;;6134448;23;20005;-78
2022/06/02 20:30:25;;;;;;;6.20;2.80;;;20.40;73.80;;;;;;6131273;23;20006;-78
2022/06/02 20:32:58;;;;;;;7.63;2.70;;;20.20;74.30;;;;;;6109410;23;20009;-76
2022/06/02 20:35:29;;;;;;;4.28;2.55;;;20.20;73.80;;;;;;6134740;23;20016;-77
2022/06/02 20:38:18;;;;;;;4.88;2.60;;;20.20;74.50;;;;;;6109205;23;20014;-77
2022/06/02 20:41:06;;;;;;;7.63;2.67;;;20.20;74.70;;;;;;6169560;23;20009;-78
2022/06/02 20:44:07;;;;;;;6.30;2.70;;;20.10;74.40;;;;;;6168286;23;20001;-79
2022/06/02 20:47:13;;;;;;;4.63;3.05;;;20.10;74.60;;;;;;6193755;23;20013;-78
2022/06/02 20:49:44;;;;;;;5.75;3.28;;;20.00;75.40;;;;;;6194469;23;20044;-79
2022/06/02 20:52:18;;;;;;;9.35;3.60;;;19.90;75.30;;;;;;6193610;23;20325;-76
2022/06/02 20:55:02;;;;;;;4.80;3.15;;;19.90;75.60;;;;;;6197477;23;20057;-77
2022/06/02 20:57:33;;;;;;;6.03;3.35;;;19.90;75.60;;;;;;6196889;23;19997;-78
2022/06/02 21:00:15;;;;;;;6.75;3.67;;;19.90;75.20;;;;;;6173063;23;20008;-77
2022/06/02 21:02:53;;;;;;;9.15;3.60;;;19.80;75.70;;;;;;6168820;23;20353;-78
2022/06/02 21:08:37;;;;;;;5.80;3.70;;;19.70;76.00;;;;;;6154771;23;19928;-79
2022/06/02 21:11:12;;;;;;;7.97;3.75;;;19.70;75.60;;;;;;6161018;23;20092;-78
2022/06/02 21:14:03;;;;;;;8.00;3.40;;;19.70;77.30;;;;;;6136971;23;20009;-79
2022/06/02 21:16:32;;;;;;;;;;;19.60;76.30;;;;;;6162382;23;20018;-79
2022/06/02 21:19:09;;;;;;;6.03;3.70;;;19.50;77.50;;;;;;6137116;23;19901;-79
2022/06/02 21:21:53;;;;;;;6.05;3.28;;;19.40;78.40;;;;;;6136946;23;20013;-78
2022/06/02 21:24:21;;;;;;;6.40;3.78;;;19.30;78.40;;;;;;6137370;23;20009;-78
2022/06/02 21:27:09;;;;;;;5.30;3.97;;;19.20;78.20;;;;;;6137201;23;20342;-79
2022/06/02 21:29:37;;;;;;;6.50;4.03;;;19.20;77.40;;;;;;6112535;23;20028;-78
2022/06/02 21:32:22;;;;;;;5.72;3.63;;;19.10;77.10;;;;;;6110882;23;20014;-78
2022/06/02 21:34:52;;;;;;;7.93;4.20;;;19.20;78.70;;;;;;6163188;23;20057;-78